Time;durP1;ratioP1;P1;durP2;ratioP2;P2;SDS_P1;SDS_P2;PMS_P1;PMS_P2;Temp;Humidity;BMP_temperature;BMP_pressure;BME280_temperature;BME280_humidity;BME280_pressure;Samples;Min_cycle;Max_cycle;Signal;HPM_P1;HPM_P2
2023/09/08 00:00:56;;;;;;;2.85;2.50;;;26.10;72.90;;;;;;5074620;28;20522;-83
2023/09/08 00:03:22;;;;;;;6.88;2.80;;;26.10;73.20;;;;;;5074335;28;20029;-83
2023/09/08 00:05:47;;;;;;;4.07;3.25;;;26.10;73.00;;;;;;5055618;28;20038;-84
2023/09/08 00:08:13;;;;;;;2.92;2.63;;;26.10;73.00;;;;;;5073923;28;20043;-83
2023/09/08 00:10:39;;;;;;;3.97;3.00;;;26.20;73.40;;;;;;5073742;28;20123;-83
2023/09/08 00:13:04;;;;;;;4.35;2.50;;;26.20;73.20;;;;;;5073864;28;20025;-83
2023/09/08 00:15:30;;;;;;;5.57;3.13;;;26.20;73.50;;;;;;5073565;28;20090;-84
2023/09/08 00:17:56;;;;;;;3.28;2.35;;;26.30;72.60;;;;;;5071900;28;20032;-84
2023/09/08 00:20:22;;;;;;;2.40;2.20;;;26.30;73.00;;;;;;5072636;28;20032;-83
2023/09/08 00:22:48;;;;;;;3.85;2.83;;;26.30;73.60;;;;;;5075026;28;20032;-84
2023/09/08 00:25:14;;;;;;;6.13;2.60;;;26.30;73.80;;;;;;5075210;28;20025;-84
2023/09/08 00:27:39;;;;;;;3.67;2.95;;;26.30;73.40;;;;;;5073825;28;20048;-84
2023/09/08 00:30:06;;;;;;;4.22;3.08;;;26.30;73.10;;;;;;5077354;28;20025;-83
2023/09/08 00:32:31;;;;;;;3.38;2.83;;;26.30;73.10;;;;;;5079421;28;20033;-83
2023/09/08 00:34:57;;;;;;;6.20;3.15;;;26.30;73.30;;;;;;5058803;28;20508;-84
2023/09/08 00:37:24;;;;;;;4.78;3.25;;;26.30;73.20;;;;;;5057542;28;20058;-83
2023/09/08 00:39:49;;;;;;;2.90;2.55;;;26.20;72.80;;;;;;5074527;28;20040;-83
2023/09/08 00:42:15;;;;;;;4.03;2.38;;;26.10;73.10;;;;;;5056371;28;20028;-83
2023/09/08 00:44:41;;;;;;;2.50;2.30;;;26.10;73.60;;;;;;5038993;28;20029;-82
2023/09/08 00:47:07;;;;;;;3.63;2.55;;;26.20;74.20;;;;;;5055459;28;20025;-82
2023/09/08 00:49:32;;;;;;;4.22;2.90;;;26.20;74.10;;;;;;5077006;28;20037;-81
2023/09/08 00:51:58;;;;;;;3.88;2.97;;;26.20;74.50;;;;;;5082507;28;20178;-82
2023/09/08 00:54:24;;;;;;;4.85;2.90;;;26.20;73.70;;;;;;5083922;28;20032;-82
2023/09/08 00:56:57;;;;;;;4.88;3.45;;;26.20;73.80;;;;;;5084104;28;20033;-81
2023/09/08 00:59:22;;;;;;;3.03;2.65;;;26.10;73.40;;;;;;5085860;28;20032;-82
2023/09/08 01:01:48;;;;;;;2.83;2.58;;;26.10;73.10;;;;;;5080467;28;20037;-81
2023/09/08 01:04:14;;;;;;;3.75;2.83;;;26.10;73.80;;;;;;5067034;28;20419;-82
2023/09/08 01:06:40;;;;;;;3.38;2.88;;;26.10;73.90;;;;;;5084407;28;20052;-82
2023/09/08 01:09:05;;;;;;;3.92;3.00;;;26.00;74.10;;;;;;5083150;28;20036;-82
2023/09/08 01:11:32;;;;;;;2.72;2.50;;;26.00;74.30;;;;;;5080962;28;20078;-81
2023/09/08 01:13:57;;;;;;;4.13;2.80;;;26.00;74.30;;;;;;5062377;28;20024;-82
2023/09/08 01:16:23;;;;;;;4.22;2.72;;;26.00;74.50;;;;;;5082407;28;20411;-82
2023/09/08 01:18:50;;;;;;;3.20;2.65;;;26.10;74.30;;;;;;5080425;28;20376;-82
2023/09/08 01:21:52;;;;;;;3.60;2.63;;;26.00;74.50;;;;;;5078372;28;20032;-82
2023/09/08 01:24:48;;;;;;;4.10;2.97;;;26.10;74.60;;;;;;5079081;28;20028;-82
2023/09/08 01:27:16;;;;;;;4.70;3.95;;;26.00;75.40;;;;;;5064850;28;20107;-82
2023/09/08 01:29:44;;;;;;;4.53;3.08;;;26.10;73.90;;;;;;5081776;28;20025;-82
2023/09/08 01:32:10;;;;;;;4.25;2.85;;;26.00;73.50;;;;;;5078116;28;20029;-82
2023/09/08 01:34:39;;;;;;;5.65;3.50;;;26.00;73.50;;;;;;5079267;28;20063;-80
2023/09/08 01:37:06;;;;;;;2.40;2.20;;;25.90;73.80;;;;;;5079434;28;20040;-82
2023/09/08 01:39:31;;;;;;;2.65;2.42;;;25.90;74.10;;;;;;5079714;28;20060;-82
2023/09/08 01:41:57;;;;;;;3.05;2.70;;;26.00;74.70;;;;;;5059718;28;20040;-82
2023/09/08 01:44:23;;;;;;;3.17;2.63;;;26.00;74.90;;;;;;5078017;28;20075;-83
2023/09/08 01:46:51;;;;;;;5.10;3.10;;;26.00;75.10;;;;;;5060335;28;20419;-82
2023/09/08 01:49:16;;;;;;;5.50;3.33;;;26.00;74.40;;;;;;5076515;28;20392;-82
2023/09/08 01:51:42;;;;;;;3.85;3.20;;;26.00;73.80;;;;;;5076800;28;20028;-82
2023/09/08 01:54:08;;;;;;;3.78;3.03;;;26.00;73.80;;;;;;5075644;28;20061;-82
2023/09/08 01:56:33;;;;;;;3.55;2.63;;;25.90;74.60;;;;;;5058463;28;20032;-82
2023/09/08 01:58:59;;;;;;;5.28;3.58;;;26.00;75.10;;;;;;5075105;28;20117;-82
2023/09/08 02:01:25;;;;;;;3.95;2.90;;;25.90;75.10;;;;;;5059247;28;20041;-82
2023/09/08 02:03:51;;;;;;;3.20;2.55;;;26.00;75.10;;;;;;5076388;28;20032;-83
2023/09/08 02:06:16;;;;;;;3.58;2.92;;;25.90;75.20;;;;;;5075449;28;20029;-82
2023/09/08 02:08:42;;;;;;;2.50;2.22;;;25.90;75.30;;;;;;5076384;28;20461;-82
2023/09/08 02:11:08;;;;;;;4.32;2.50;;;25.90;75.40;;;;;;5076678;28;20074;-82
2023/09/08 02:13:33;;;;;;;4.70;2.78;;;25.90;75.20;;;;;;5075355;28;20033;-82
2023/09/08 02:15:59;;;;;;;3.03;2.70;;;25.90;75.40;;;;;;5076052;28;20029;-82
2023/09/08 02:18:26;;;;;;;3.00;2.58;;;25.90;75.60;;;;;;5075816;28;20040;-82
2023/09/08 02:20:51;;;;;;;4.05;3.50;;;26.00;75.80;;;;;;5062141;28;20358;-83
2023/09/08 02:23:17;;;;;;;3.80;2.95;;;26.00;75.40;;;;;;5076071;28;20103;-82
2023/09/08 02:25:42;;;;;;;3.50;3.00;;;26.00;75.20;;;;;;5057924;28;20029;-82
2023/09/08 02:28:08;;;;;;;5.75;3.50;;;26.00;75.30;;;;;;5077331;28;20107;-81
2023/09/08 02:30:34;;;;;;;3.28;2.78;;;26.00;75.10;;;;;;5076374;28;20029;-82
2023/09/08 02:32:59;;;;;;;3.22;2.92;;;25.90;75.10;;;;;;5075877;28;20068;-82
2023/09/08 02:35:25;;;;;;;5.38;3.58;;;25.90;75.30;;;;;;5075862;28;20178;-83
2023/09/08 02:37:51;;;;;;;4.57;4.00;;;26.00;75.10;;;;;;5076461;28;20422;-83
2023/09/08 02:40:16;;;;;;;5.70;3.58;;;25.90;73.60;;;;;;5076122;28;20051;-82
2023/09/08 02:42:42;;;;;;;4.88;3.50;;;25.80;73.60;;;;;;5075679;28;20032;-82
2023/09/08 02:45:08;;;;;;;5.50;3.08;;;25.80;73.90;;;;;;5075680;28;20031;-82
2023/09/08 02:47:33;;;;;;;3.05;2.25;;;25.70;74.70;;;;;;5074608;28;20029;-83
2023/09/08 02:49:59;;;;;;;3.30;3.00;;;25.70;75.20;;;;;;5058657;28;20060;-83
2023/09/08 02:52:25;;;;;;;3.30;3.00;;;25.70;75.50;;;;;;5059173;28;20025;-82
2023/09/08 02:54:50;;;;;;;3.63;3.33;;;25.70;75.80;;;;;;5076896;28;20094;-83
2023/09/08 02:57:16;;;;;;;3.22;2.72;;;25.70;75.80;;;;;;5075803;28;20481;-83
2023/09/08 02:59:41;;;;;;;3.72;3.08;;;25.70;76.00;;;;;;5073936;28;20044;-83
2023/09/08 03:02:07;;;;;;;6.60;5.00;;;25.70;75.90;;;;;;5057416;28;20032;-83
2023/09/08 03:04:33;;;;;;;4.05;3.70;;;25.70;74.70;;;;;;5075062;28;20028;-82
2023/09/08 03:06:58;;;;;;;3.65;2.83;;;25.60;74.00;;;;;;5073955;28;20461;-82
2023/09/08 03:09:24;;;;;;;3.88;3.38;;;25.60;74.90;;;;;;5075113;28;20106;-83
2023/09/08 03:11:50;;;;;;;4.13;3.08;;;25.50;75.30;;;;;;5075253;28;20097;-82
2023/09/08 03:14:15;;;;;;;3.47;2.88;;;25.50;75.70;;;;;;5074968;28;20400;-82
2023/09/08 03:16:41;;;;;;;4.78;3.53;;;25.50;76.10;;;;;;5074878;28;20517;-82
2023/09/08 03:19:06;;;;;;;3.60;3.28;;;25.50;76.10;;;;;;5056853;28;20435;-83
2023/09/08 03:21:32;;;;;;;2.83;2.63;;;25.50;76.20;;;;;;5074710;28;20037;-82
2023/09/08 03:23:58;;;;;;;3.15;2.83;;;25.50;76.30;;;;;;5075108;28;20029;-82
2023/09/08 03:26:23;;;;;;;3.17;2.58;;;25.60;76.60;;;;;;5057945;28;20025;-83
2023/09/08 03:29:11;;;;;;;3.25;2.83;;;25.50;76.60;;;;;;5075004;28;20039;-83
2023/09/08 03:31:37;;;;;;;4.03;2.78;;;25.60;76.80;;;;;;5056723;28;20465;-82
2023/09/08 03:34:02;;;;;;;6.22;3.30;;;25.60;76.60;;;;;;5056766;28;20055;-83
2023/09/08 03:36:28;;;;;;;3.25;2.92;;;25.60;76.00;;;;;;5074349;28;20449;-84
2023/09/08 03:38:54;;;;;;;3.40;3.00;;;25.50;76.20;;;;;;5074368;28;20097;-84
2023/09/08 03:41:19;;;;;;;3.20;2.90;;;25.60;76.50;;;;;;5072860;28;20464;-81
2023/09/08 03:43:45;;;;;;;3.80;3.40;;;25.60;77.20;;;;;;5074128;28;20032;-83
2023/09/08 03:46:11;;;;;;;3.75;3.17;;;25.60;76.50;;;;;;5056328;28;20036;-83
2023/09/08 03:48:36;;;;;;;5.22;4.40;;;25.60;76.60;;;;;;5075110;28;20035;-83
2023/09/08 03:51:02;;;;;;;3.63;3.05;;;25.50;75.40;;;;;;5074768;28;20032;-81
2023/09/08 03:53:27;;;;;;;6.10;3.80;;;25.50;75.90;;;;;;5077857;28;20465;-83
2023/09/08 03:55:53;;;;;;;4.22;3.80;;;25.50;75.30;;;;;;5061041;28;20119;-83
2023/09/08 03:58:19;;;;;;;5.75;4.30;;;25.40;75.80;;;;;;5058983;28;20044;-82
2023/09/08 04:00:44;;;;;;;5.10;4.30;;;25.40;75.20;;;;;;5065123;28;20039;-82
2023/09/08 04:03:10;;;;;;;3.80;3.30;;;25.40;75.30;;;;;;5086643;28;20032;-82
2023/09/08 04:05:36;;;;;;;4.60;3.50;;;25.30;75.40;;;;;;5078166;28;20032;-82
2023/09/08 04:08:02;;;;;;;6.30;3.95;;;25.20;75.60;;;;;;5077858;28;20038;-83
2023/09/08 04:10:27;;;;;;;6.13;4.43;;;25.20;75.50;;;;;;5077019;28;20033;-82
2023/09/08 04:12:53;;;;;;;4.93;3.97;;;25.20;75.40;;;;;;5076217;28;20488;-82
2023/09/08 04:15:18;;;;;;;3.72;3.25;;;25.10;75.40;;;;;;5074915;28;20048;-82
2023/09/08 04:17:45;;;;;;;5.57;4.25;;;25.00;75.70;;;;;;5074864;28;20025;-83
2023/09/08 04:20:14;;;;;;;4.43;3.38;;;25.00;75.80;;;;;;5074286;28;20115;-82
2023/09/08 04:22:39;;;;;;;3.50;3.20;;;25.00;76.60;;;;;;5072833;28;20043;-82
2023/09/08 04:25:06;;;;;;;3.08;2.80;;;25.00;76.50;;;;;;5056482;28;20029;-82
2023/09/08 04:27:32;;;;;;;4.82;3.92;;;24.90;77.10;;;;;;5074792;28;20028;-83
2023/09/08 04:29:59;;;;;;;4.40;4.00;;;24.90;77.10;;;;;;5057834;28;20412;-83
2023/09/08 04:32:24;;;;;;;5.65;4.63;;;24.90;76.90;;;;;;5073950;28;20116;-83
2023/09/08 04:34:50;;;;;;;5.35;4.85;;;24.80;76.80;;;;;;5057311;28;20080;-83
2023/09/08 04:37:16;;;;;;;5.53;4.97;;;24.80;75.80;;;;;;5073283;28;20127;-83
2023/09/08 04:39:42;;;;;;;4.65;3.70;;;24.80;76.40;;;;;;5073875;28;20033;-83
2023/09/08 04:42:08;;;;;;;5.75;5.13;;;24.70;76.60;;;;;;5074339;28;20354;-83
2023/09/08 04:44:33;;;;;;;5.78;4.03;;;24.70;76.70;;;;;;5074899;28;20060;-82
2023/09/08 04:46:59;;;;;;;5.70;4.90;;;24.70;77.10;;;;;;5074055;28;20032;-83
2023/09/08 04:49:25;;;;;;;6.35;4.10;;;24.70;77.10;;;;;;5073926;28;20036;-82
2023/09/08 04:51:50;;;;;;;7.82;4.60;;;24.60;77.50;;;;;;5073820;28;20085;-83
2023/09/08 04:54:16;;;;;;;5.03;4.53;;;24.60;77.70;;;;;;5073563;28;20112;-83
2023/09/08 04:56:41;;;;;;;8.02;6.10;;;24.60;77.20;;;;;;5073032;28;20021;-83
2023/09/08 04:59:07;;;;;;;4.65;4.03;;;24.60;76.30;;;;;;5073694;28;20416;-83
2023/09/08 05:01:36;;;;;;;7.78;5.13;;;24.50;77.10;;;;;;5074815;28;20044;-81
2023/09/08 05:04:02;;;;;;;5.47;4.30;;;24.40;76.70;;;;;;5056622;28;20415;-83
2023/09/08 05:06:28;;;;;;;3.63;3.30;;;24.40;77.80;;;;;;5056196;28;20036;-83
2023/09/08 05:08:53;;;;;;;9.00;6.22;;;24.30;78.50;;;;;;5073951;28;20029;-82
2023/09/08 05:11:19;;;;;;;6.00;4.65;;;24.30;77.70;;;;;;5074382;28;20033;-83
2023/09/08 05:13:46;;;;;;;4.18;3.72;;;24.30;77.30;;;;;;5073520;28;20107;-82
2023/09/08 05:16:12;;;;;;;5.68;4.22;;;24.30;78.20;;;;;;5073390;28;20111;-82
2023/09/08 05:18:41;;;;;;;4.82;4.25;;;24.30;78.60;;;;;;5073432;28;20056;-82
2023/09/08 05:21:07;;;;;;;4.75;4.13;;;24.30;78.40;;;;;;5073422;28;20036;-82
2023/09/08 05:23:33;;;;;;;5.88;5.15;;;24.40;78.40;;;;;;5074245;28;20056;-82
2023/09/08 05:26:00;;;;;;;4.63;3.95;;;24.40;78.30;;;;;;5055751;28;20037;-83
2023/09/08 05:28:26;;;;;;;4.85;4.30;;;24.40;78.30;;;;;;5073717;28;20507;-83
2023/09/08 05:30:52;;;;;;;5.13;4.40;;;24.40;78.80;;;;;;5074888;28;20033;-82
2023/09/08 05:33:18;;;;;;;4.97;4.15;;;24.40;78.30;;;;;;5072485;28;20040;-82
2023/09/08 05:35:45;;;;;;;5.70;4.55;;;24.40;78.50;;;;;;5055862;28;20048;-82
2023/09/08 05:38:11;;;;;;;6.88;5.50;;;24.40;78.20;;;;;;5074238;28;20055;-82
2023/09/08 05:40:37;;;;;;;8.65;6.38;;;24.40;77.70;;;;;;5074204;28;20476;-82
2023/09/08 05:43:03;;;;;;;5.53;4.70;;;24.30;77.30;;;;;;5056797;28;20461;-82
2023/09/08 05:45:31;;;;;;;9.27;5.38;;;24.30;77.50;;;;;;5075210;28;20052;-82
2023/09/08 05:47:57;;;;;;;6.68;4.97;;;24.30;77.90;;;;;;5076585;28;20063;-82
2023/09/08 05:50:22;;;;;;;6.72;5.38;;;24.30;78.40;;;;;;5076450;28;20033;-82
2023/09/08 05:52:48;;;;;;;6.95;5.95;;;24.30;77.90;;;;;;5076977;28;20195;-72
2023/09/08 05:55:14;;;;;;;3.88;3.10;;;24.30;78.40;;;;;;5075967;28;20021;-73
2023/09/08 05:57:40;;;;;;;4.53;3.38;;;24.40;80.10;;;;;;5058629;28;20453;-73
2023/09/08 06:00:07;;;;;;;5.68;4.32;;;24.50;80.40;;;;;;5075018;28;20032;-73
2023/09/08 06:02:33;;;;;;;4.25;3.53;;;24.60;79.20;;;;;;5074443;28;20050;-73
2023/09/08 06:04:58;;;;;;;4.15;3.75;;;24.70;79.20;;;;;;5075905;28;20108;-71
2023/09/08 06:07:24;;;;;;;5.82;5.22;;;24.80;78.40;;;;;;5075669;28;20036;-72
2023/09/08 06:09:49;;;;;;;5.45;4.50;;;24.90;77.70;;;;;;5074714;28;20020;-72
2023/09/08 06:12:15;;;;;;;5.65;5.05;;;25.00;77.30;;;;;;5075725;28;20043;-72
2023/09/08 06:14:41;;;;;;;5.40;4.90;;;25.00;77.00;;;;;;5076131;28;20028;-72
2023/09/08 06:17:06;;;;;;;7.13;6.30;;;25.00;76.70;;;;;;5075583;28;20469;-73
2023/09/08 06:19:32;;;;;;;10.70;5.70;;;25.10;76.00;;;;;;5074663;28;20476;-73
2023/09/08 06:21:58;;;;;;;7.90;5.50;;;25.00;76.30;;;;;;5075936;28;20039;-72
2023/09/08 06:24:24;;;;;;;9.05;5.95;;;25.00;76.50;;;;;;5075280;28;20024;-72
2023/09/08 06:26:50;;;;;;;6.82;5.22;;;25.10;76.30;;;;;;5075505;28;20056;-73
2023/09/08 06:29:15;;;;;;;5.47;4.85;;;25.10;76.20;;;;;;5075544;28;20114;-73
2023/09/08 06:31:41;;;;;;;7.18;5.38;;;25.10;76.30;;;;;;5075488;28;20154;-73
2023/09/08 06:34:06;;;;;;;6.10;4.55;;;25.10;76.00;;;;;;5075685;28;20140;-73
2023/09/08 06:36:32;;;;;;;9.35;5.82;;;25.10;76.30;;;;;;5075212;28;20029;-72
2023/09/08 06:38:58;;;;;;;6.00;4.50;;;25.20;76.10;;;;;;5075260;28;20127;-73
2023/09/08 06:41:23;;;;;;;7.63;5.85;;;25.30;76.10;;;;;;5074193;28;20063;-73
2023/09/08 06:43:49;;;;;;;8.27;5.82;;;25.30;75.90;;;;;;5075299;28;20078;-74
2023/09/08 06:46:15;;;;;;;11.30;7.00;;;25.40;75.20;;;;;;5074968;28;20032;-73
2023/09/08 06:48:41;;;;;;;8.25;5.05;;;25.40;75.40;;;;;;5075850;28;20461;-73
2023/09/08 06:51:06;;;;;;;10.07;6.18;;;25.40;75.80;;;;;;5075479;28;20063;-72
2023/09/08 06:53:32;;;;;;;11.90;5.65;;;25.40;75.50;;;;;;5073974;28;20039;-72
2023/09/08 06:55:58;;;;;;;6.95;4.85;;;25.40;75.60;;;;;;5074890;28;20477;-72
2023/09/08 06:58:23;;;;;;;9.00;5.13;;;25.40;75.70;;;;;;5074692;28;20071;-73
2023/09/08 07:00:54;;;;;;;8.90;5.78;;;25.50;75.60;;;;;;5073458;28;20069;-73
2023/09/08 07:03:22;;;;;;;8.65;4.82;;;25.60;75.40;;;;;;5075601;28;20020;-73
2023/09/08 07:05:49;;;;;;;8.18;5.72;;;25.70;75.20;;;;;;5075198;28;20089;-72
2023/09/08 07:08:15;;;;;;;7.32;5.18;;;25.80;74.90;;;;;;5075221;28;20032;-73
2023/09/08 07:10:40;;;;;;;6.97;4.35;;;25.80;74.80;;;;;;5075562;28;20437;-74
2023/09/08 07:13:06;;;;;;;9.38;7.10;;;25.80;74.80;;;;;;5075784;28;20025;-82
2023/09/08 07:15:31;;;;;;;11.93;6.60;;;25.90;74.00;;;;;;5057372;28;20024;-86
2023/09/08 07:17:57;;;;;;;9.88;6.07;;;25.80;74.20;;;;;;5075187;28;20112;-85
2023/09/08 07:20:23;;;;;;;11.85;6.78;;;25.80;74.70;;;;;;5075683;28;20040;-88
2023/09/08 07:22:48;;;;;;;11.80;5.93;;;25.70;76.20;;;;;;5075045;28;20059;-85
2023/09/08 07:25:14;;;;;;;9.25;6.25;;;25.60;75.30;;;;;;5074518;28;20444;-84
2023/09/08 07:27:40;;;;;;;10.15;6.18;;;25.60;75.60;;;;;;5057206;28;20123;-85
2023/09/08 07:30:06;;;;;;;10.10;5.75;;;25.70;75.30;;;;;;5075776;28;20035;-84
2023/09/08 07:32:31;;;;;;;8.43;5.88;;;25.70;75.40;;;;;;5074357;28;20032;-83
2023/09/08 07:34:57;;;;;;;8.18;5.78;;;25.80;75.80;;;;;;5073869;28;20091;-83
2023/09/08 07:37:23;;;;;;;8.45;6.65;;;25.70;76.00;;;;;;5056582;28;20044;-85
2023/09/08 07:39:50;;;;;;;9.75;7.05;;;25.70;75.60;;;;;;5073605;28;20417;-85
2023/09/08 07:42:16;;;;;;;9.90;7.03;;;25.80;75.40;;;;;;5074516;28;20064;-84
2023/09/08 07:44:42;;;;;;;9.43;7.00;;;25.80;75.20;;;;;;5073489;28;20111;-86
2023/09/08 07:47:07;;;;;;;9.40;7.35;;;25.90;74.70;;;;;;5073655;28;20056;-83
2023/09/08 07:49:34;;;;;;;7.75;5.90;;;25.70;75.20;;;;;;5074652;28;20415;-83
2023/09/08 07:52:00;;;;;;;14.23;6.13;;;25.70;76.10;;;;;;5073990;28;20021;-83
2023/09/08 07:54:26;;;;;;;8.38;6.63;;;25.70;76.10;;;;;;5073745;28;20028;-83
2023/09/08 07:56:52;;;;;;;8.93;6.15;;;25.70;76.50;;;;;;5072715;28;20025;-83
2023/09/08 07:59:17;;;;;;;10.50;5.68;;;25.80;76.40;;;;;;5073908;28;20072;-86
2023/09/08 08:01:43;;;;;;;10.02;6.70;;;25.90;76.10;;;;;;5056010;28;20389;-84
2023/09/08 08:04:09;;;;;;;10.18;6.70;;;26.00;76.50;;;;;;5074651;28;20036;-85
2023/09/08 08:06:35;;;;;;;11.85;7.47;;;26.10;76.30;;;;;;5055610;28;20103;-85
2023/09/08 08:09:00;;;;;;;12.63;6.90;;;26.20;75.80;;;;;;5056160;28;20423;-84
2023/09/08 08:11:26;;;;;;;12.10;8.23;;;26.10;76.40;;;;;;5054564;28;20059;-84
2023/09/08 08:13:52;;;;;;;10.23;7.60;;;26.10;75.90;;;;;;5073597;28;20029;-82
2023/09/08 08:16:18;;;;;;;9.50;7.22;;;26.00;75.90;;;;;;5073770;28;20028;-81
2023/09/08 08:18:44;;;;;;;6.80;6.00;;;26.00;76.20;;;;;;5073444;28;20101;-83
2023/09/08 08:21:09;;;;;;;13.20;8.77;;;26.00;76.20;;;;;;5055295;28;20461;-84
2023/09/08 08:23:36;;;;;;;10.43;8.27;;;26.10;76.60;;;;;;5073417;28;20032;-82
2023/09/08 08:26:01;;;;;;;9.02;7.03;;;25.90;76.60;;;;;;5072108;28;20036;-83
2023/09/08 08:28:27;;;;;;;11.43;7.10;;;26.00;77.20;;;;;;5072138;28;20032;-84
2023/09/08 08:30:52;;;;;;;11.15;7.30;;;26.10;77.00;;;;;;5055728;28;20435;-82
2023/09/08 08:33:20;;;;;;;11.98;7.57;;;26.30;77.60;;;;;;5073468;28;20414;-83
2023/09/08 08:35:53;;;;;;;11.20;7.10;;;26.40;78.00;;;;;;5055177;28;20067;-83
2023/09/08 08:38:19;;;;;;;11.93;6.60;;;26.50;78.00;;;;;;5055165;28;20067;-81
2023/09/08 08:40:45;;;;;;;17.35;7.50;;;26.60;77.30;;;;;;5073324;28;20032;-85
2023/09/08 08:43:11;;;;;;;14.15;7.07;;;26.80;76.20;;;;;;5055630;28;20028;-86
2023/09/08 08:45:39;;;;;;;10.38;7.18;;;26.80;77.20;;;;;;5073601;28;20481;-87
2023/09/08 08:48:05;;;;;;;6.97;5.30;;;26.90;77.60;;;;;;5073238;28;20025;-84
2023/09/08 08:50:32;;;;;;;11.98;6.90;;;27.00;77.10;;;;;;5073774;28;20522;-82
2023/09/08 08:52:58;;;;;;;11.23;6.72;;;27.20;76.30;;;;;;5073051;28;20098;-83
2023/09/08 08:55:29;;;;;;;9.75;7.65;;;27.40;76.30;;;;;;5073676;28;20028;-82
2023/09/08 08:57:55;;;;;;;8.38;6.43;;;27.40;74.40;;;;;;5073149;28;20039;-85
2023/09/08 09:00:21;;;;;;;9.18;6.55;;;27.40;74.60;;;;;;5072988;28;20079;-84
2023/09/08 09:02:51;;;;;;;13.63;8.85;;;27.40;74.70;;;;;;5072806;28;20469;-81
2023/09/08 09:05:18;;;;;;;9.02;7.78;;;27.50;74.50;;;;;;5071728;28;20102;-80
2023/09/08 09:07:44;;;;;;;13.45;7.15;;;27.60;75.00;;;;;;5073425;28;20532;-79
2023/09/08 09:10:10;;;;;;;10.80;6.72;;;27.60;74.60;;;;;;5055519;28;20127;-83
2023/09/08 09:12:38;;;;;;;9.80;7.45;;;27.70;75.10;;;;;;5073281;28;20029;-83
2023/09/08 09:15:04;;;;;;;9.63;6.47;;;27.80;74.70;;;;;;5072922;28;20029;-81
2023/09/08 09:17:34;;;;;;;9.55;6.78;;;27.90;74.90;;;;;;5072902;28;20166;-81
2023/09/08 09:20:17;;;;;;;7.80;5.85;;;28.00;74.40;;;;;;5072993;28;20115;-83
2023/09/08 09:22:43;;;;;;;6.15;5.22;;;28.20;73.70;;;;;;5073055;28;20028;-84
2023/09/08 09:25:10;;;;;;;5.78;4.57;;;28.40;73.20;;;;;;5077430;28;20361;-79
2023/09/08 09:27:38;;;;;;;7.40;5.63;;;28.50;72.50;;;;;;5077116;28;20043;-80
2023/09/08 09:30:05;;;;;;;7.07;5.60;;;28.60;72.30;;;;;;5058656;28;20040;-76
2023/09/08 09:32:31;;;;;;;10.05;5.90;;;28.80;72.70;;;;;;5075100;28;20045;-76
2023/09/08 09:35:00;;;;;;;11.10;6.50;;;28.80;72.50;;;;;;5058607;28;20351;-78
2023/09/08 09:37:26;;;;;;;12.85;6.55;;;28.90;71.90;;;;;;5076326;28;20072;-77
2023/09/08 09:39:53;;;;;;;7.03;5.13;;;29.00;71.60;;;;;;5076171;28;20068;-78
2023/09/08 09:42:20;;;;;;;8.20;5.88;;;28.90;71.70;;;;;;5075899;28;20032;-78
2023/09/08 09:44:52;;;;;;;10.88;6.32;;;29.00;72.10;;;;;;5075974;28;20063;-80
2023/09/08 09:47:19;;;;;;;10.13;7.25;;;29.10;72.50;;;;;;5058630;28;20056;-78
2023/09/08 09:49:46;;;;;;;9.32;7.10;;;29.20;72.70;;;;;;5075608;28;20131;-81
2023/09/08 09:52:13;;;;;;;6.05;5.45;;;29.20;71.80;;;;;;5057849;28;20417;-81
2023/09/08 09:54:43;;;;;;;5.82;5.25;;;29.20;71.80;;;;;;5076068;28;20366;-79
2023/09/08 09:57:14;;;;;;;7.50;5.78;;;29.30;71.60;;;;;;5076169;28;20036;-78
2023/09/08 09:59:41;;;;;;;6.45;5.47;;;29.50;71.70;;;;;;5075647;28;20123;-79
2023/09/08 10:02:12;;;;;;;6.43;5.60;;;29.60;71.70;;;;;;5075613;28;20028;-82
2023/09/08 10:04:43;;;;;;;9.70;6.65;;;29.70;72.00;;;;;;5075787;28;20055;-82
2023/09/08 10:07:09;;;;;;;10.55;6.25;;;29.80;71.80;;;;;;5075865;28;20055;-80
2023/09/08 10:09:37;;;;;;;8.93;5.63;;;29.80;71.50;;;;;;5075760;28;20033;-79
2023/09/08 10:12:05;;;;;;;9.07;6.18;;;30.00;71.60;;;;;;5057779;28;20029;-79
2023/09/08 10:14:33;;;;;;;5.25;4.60;;;30.00;71.00;;;;;;5075247;28;20380;-80
2023/09/08 10:17:01;;;;;;;9.23;6.00;;;30.10;71.40;;;;;;5075702;28;20038;-79
2023/09/08 10:19:27;;;;;;;10.93;6.05;;;30.20;71.30;;;;;;5075430;28;20032;-80
2023/09/08 10:21:59;;;;;;;7.22;5.70;;;30.40;71.00;;;;;;5075470;28;20369;-80
2023/09/08 10:24:27;;;;;;;7.60;3.90;;;30.40;70.40;;;;;;5075540;28;20457;-79
2023/09/08 10:27:14;;;;;;;8.07;4.85;;;30.40;69.90;;;;;;5075603;28;20044;-80
2023/09/08 10:29:40;;;;;;;7.05;5.22;;;30.50;70.60;;;;;;5078606;28;20029;-80
2023/09/08 10:32:08;;;;;;;6.40;4.30;;;30.60;69.90;;;;;;5077396;28;20380;-80
2023/09/08 10:34:35;;;;;;;7.32;4.53;;;30.60;69.70;;;;;;5055640;28;20045;-77
2023/09/08 10:37:00;;;;;;;10.15;4.95;;;30.70;69.60;;;;;;5075317;28;20024;-77
2023/09/08 10:39:39;;;;;;;7.50;5.50;;;30.80;70.20;;;;;;5075074;28;20469;-78
2023/09/08 10:42:17;;;;;;;8.10;4.68;;;30.80;69.70;;;;;;5074850;28;20190;-77
2023/09/08 10:44:56;;;;;;;8.85;5.00;;;30.80;69.70;;;;;;5075421;28;20021;-78
2023/09/08 10:47:29;;;;;;;5.88;4.30;;;30.90;70.00;;;;;;5076121;28;20032;-78
2023/09/08 10:49:57;;;;;;;6.35;5.35;;;31.00;70.70;;;;;;5075211;28;20473;-78
2023/09/08 10:52:24;;;;;;;6.13;4.32;;;31.00;70.20;;;;;;5057877;28;20334;-77
2023/09/08 10:54:52;;;;;;;5.68;4.55;;;31.10;71.10;;;;;;5074789;28;20031;-77
2023/09/08 10:57:22;;;;;;;9.57;4.47;;;31.20;70.10;;;;;;5073632;28;20048;-78
2023/09/08 10:59:59;;;;;;;8.55;4.45;;;31.30;70.30;;;;;;5074964;28;20029;-78
2023/09/08 11:02:42;;;;;;;7.55;5.50;;;31.30;69.50;;;;;;5074926;28;20040;-77
2023/09/08 11:05:13;;;;;;;6.03;4.10;;;31.40;69.00;;;;;;5074831;28;20426;-77
2023/09/08 11:07:40;;;;;;;10.85;4.50;;;31.30;69.00;;;;;;5074787;28;20021;-77
2023/09/08 11:10:07;;;;;;;9.98;4.13;;;31.30;69.40;;;;;;5074672;28;20083;-76
2023/09/08 11:12:33;;;;;;;7.63;4.90;;;31.40;69.70;;;;;;5074404;28;20036;-78
2023/09/08 11:15:04;;;;;;;5.57;4.78;;;31.50;69.40;;;;;;5077275;28;20029;-78
2023/09/08 11:17:31;;;;;;;7.07;4.68;;;31.50;69.10;;;;;;5074613;28;20067;-77
2023/09/08 11:19:57;;;;;;;8.52;5.35;;;31.60;69.30;;;;;;5073581;28;20071;-79
2023/09/08 11:22:24;;;;;;;8.23;3.92;;;31.70;68.70;;;;;;5073166;28;20056;-79
2023/09/08 11:24:51;;;;;;;8.63;5.22;;;31.70;68.40;;;;;;5074337;28;20112;-79
2023/09/08 11:27:17;;;;;;;10.32;4.50;;;31.70;69.00;;;;;;5073844;28;20469;-80
2023/09/08 11:29:46;;;;;;;10.23;4.63;;;31.80;68.60;;;;;;5074625;28;20040;-81
2023/09/08 11:32:12;;;;;;;6.10;3.65;;;31.90;68.60;;;;;;5073721;28;20028;-79
2023/09/08 11:34:40;;;;;;;4.80;4.07;;;32.00;68.10;;;;;;5073101;28;20135;-79
2023/09/08 11:37:14;;;;;;;5.63;3.55;;;32.00;68.70;;;;;;5073388;28;20035;-77
2023/09/08 11:39:41;;;;;;;6.85;4.10;;;32.00;68.50;;;;;;5074056;28;20032;-78
2023/09/08 11:42:14;;;;;;;5.38;3.42;;;32.00;68.10;;;;;;5073950;28;20036;-77
2023/09/08 11:44:41;;;;;;;8.85;4.25;;;32.10;68.30;;;;;;5056152;28;20043;-77
2023/09/08 11:47:09;;;;;;;4.80;3.60;;;32.10;68.90;;;;;;5073470;28;20028;-77
2023/09/08 11:49:39;;;;;;;4.90;4.05;;;32.20;68.60;;;;;;5073561;28;20032;-77
2023/09/08 11:52:05;;;;;;;5.10;3.78;;;32.40;68.20;;;;;;5073783;28;20035;-78
2023/09/08 11:54:32;;;;;;;9.05;3.80;;;32.40;67.50;;;;;;5073677;28;20039;-78
2023/09/08 11:57:00;;;;;;;4.57;3.53;;;32.40;67.30;;;;;;5074018;28;20398;-81
2023/09/08 11:59:28;;;;;;;5.22;3.63;;;32.50;67.40;;;;;;5073675;28;20029;-81
2023/09/08 12:01:55;;;;;;;4.60;3.38;;;32.40;67.30;;;;;;5073624;28;20119;-78
2023/09/08 12:04:21;;;;;;;5.60;3.00;;;32.50;67.60;;;;;;5073243;28;20067;-77
2023/09/08 12:06:51;;;;;;;4.32;3.58;;;32.60;66.80;;;;;;5055434;28;20480;-77
2023/09/08 12:09:16;;;;;;;5.78;3.05;;;32.70;66.30;;;;;;5073484;28;20331;-79
2023/09/08 12:11:43;;;;;;;5.82;3.08;;;32.80;66.50;;;;;;5055123;28;20036;-82
2023/09/08 12:14:13;;;;;;;6.80;3.55;;;32.80;66.20;;;;;;5073390;28;20064;-80
2023/09/08 12:16:41;;;;;;;7.35;3.47;;;32.90;67.60;;;;;;5073320;28;20032;-79
2023/09/08 12:19:07;;;;;;;6.18;3.63;;;33.00;67.60;;;;;;5072909;28;20028;-79
2023/09/08 12:21:54;;;;;;;5.88;3.40;;;33.00;67.00;;;;;;5071653;28;20036;-80
2023/09/08 12:24:23;;;;;;;5.95;3.70;;;33.10;66.60;;;;;;5073033;28;20036;-80
2023/09/08 12:26:49;;;;;;;5.88;3.55;;;33.10;66.80;;;;;;5054926;28;20036;-79
2023/09/08 12:29:15;;;;;;;6.40;3.55;;;33.00;66.00;;;;;;5071945;28;20032;-79
2023/09/08 12:31:40;;;;;;;8.48;3.60;;;33.00;66.40;;;;;;5073054;28;20111;-81
2023/09/08 12:34:09;;;;;;;5.47;3.55;;;33.10;66.20;;;;;;5072818;28;20044;-78
2023/09/08 12:36:36;;;;;;;6.20;3.40;;;33.20;66.90;;;;;;5073788;28;20064;-77
2023/09/08 12:39:04;;;;;;;7.80;3.38;;;33.30;67.00;;;;;;5072778;28;20029;-79
2023/09/08 12:41:30;;;;;;;5.07;3.20;;;33.40;68.00;;;;;;5073304;28;20032;-80
2023/09/08 12:43:56;;;;;;;6.20;3.63;;;33.40;66.50;;;;;;5073001;28;20033;-79